createdAt,value
2019-01-11T00:01:44.774Z,0.70
2019-01-11T00:04:14.545Z,0.90
2019-01-11T00:06:44.394Z,1.00
2019-01-11T00:09:14.089Z,1.00
2019-01-11T00:11:43.730Z,1.00
2019-01-11T00:14:13.353Z,1.00
2019-01-11T00:16:43.117Z,1.10
2019-01-11T00:19:12.739Z,1.10
2019-01-11T00:21:42.385Z,1.10
2019-01-11T00:24:12.031Z,0.90
2019-01-11T00:26:41.651Z,0.90
2019-01-11T00:29:11.294Z,0.90
2019-01-11T00:31:40.914Z,0.90
2019-01-11T00:34:10.557Z,1.00
2019-01-11T00:36:40.283Z,1.00
2019-01-11T00:39:10.070Z,0.90
2019-01-11T00:41:40.952Z,0.90
2019-01-11T00:44:10.525Z,1.00
2019-01-11T00:46:40.229Z,1.00
2019-01-11T00:49:13.568Z,0.90
2019-01-11T00:51:41.210Z,0.80
2019-01-11T00:54:10.870Z,0.60
2019-01-11T00:56:40.581Z,0.70
2019-01-11T00:59:10.305Z,0.90
2019-01-11T01:01:39.929Z,0.90
2019-01-11T01:04:09.564Z,0.90
2019-01-11T01:06:39.443Z,0.80
2019-01-11T01:09:09.326Z,0.80
2019-01-11T01:11:39.152Z,0.50
2019-01-11T01:14:08.802Z,0.70
2019-01-11T01:16:38.649Z,0.70
2019-01-11T01:19:08.366Z,0.70
2019-01-11T01:21:38.077Z,0.80
2019-01-11T01:24:07.794Z,0.90
2019-01-11T01:26:37.477Z,0.30
2019-01-11T01:29:26.469Z,0.50
2019-01-11T01:31:56.085Z,0.60
2019-01-11T01:34:25.730Z,0.60
2019-01-11T01:39:33.625Z,0.40
2019-01-11T01:42:03.414Z,0.60
2019-01-11T01:44:33.070Z,0.50
2019-01-11T01:47:02.834Z,0.30
2019-01-11T01:49:32.478Z,0.30
2019-01-11T01:52:02.102Z,0.30
2019-01-11T01:54:31.746Z,0.20
2019-01-11T01:57:01.405Z,0.50
2019-01-11T01:59:31.042Z,0.60
2019-01-11T02:02:00.657Z,0.50
2019-01-11T02:04:30.377Z,0.40
2019-01-11T02:07:00.032Z,0.10
2019-01-11T02:09:29.749Z,-0.20
2019-01-11T02:11:59.373Z,0.00
2019-01-11T02:14:29.013Z,0.20
2019-01-11T02:16:58.864Z,0.20
2019-01-11T02:19:32.874Z,-0.10
2019-01-11T02:21:59.777Z,0.10
2019-01-11T02:24:29.421Z,0.30
2019-01-11T02:26:59.250Z,0.20
2019-01-11T02:29:28.889Z,0.10
2019-01-11T02:31:58.590Z,-0.10
2019-01-11T02:34:28.321Z,-0.20
2019-01-11T02:36:58.093Z,0.00
2019-01-11T02:39:27.731Z,0.00
2019-01-11T02:41:57.341Z,0.00
2019-01-11T02:44:27.001Z,-0.10
2019-01-11T02:46:56.658Z,0.00
2019-01-11T02:49:26.297Z,-0.10
2019-01-11T02:51:55.933Z,-0.30
2019-01-11T02:54:25.590Z,-0.40
2019-01-11T02:56:55.365Z,-0.30
2019-01-11T02:59:25.028Z,-0.40
2019-01-11T03:01:54.709Z,-0.70
2019-01-11T03:04:24.387Z,-0.60
2019-01-11T03:06:54.105Z,-0.70
2019-01-11T03:09:23.745Z,-0.60
2019-01-11T03:11:53.383Z,-0.90
2019-01-11T03:14:23.029Z,-1.00
2019-01-11T03:16:52.654Z,-0.90
2019-01-11T03:19:22.303Z,-1.00
2019-01-11T03:21:51.950Z,-0.90
2019-01-11T03:24:21.587Z,-1.20
2019-01-11T03:26:51.238Z,-1.40
2019-01-11T03:29:20.889Z,-1.20
2019-01-11T03:31:50.536Z,-0.90
2019-01-11T03:34:20.160Z,-0.80
2019-01-11T03:36:49.789Z,-0.90
2019-01-11T03:39:19.510Z,-0.80
2019-01-11T03:41:50.766Z,-1.20
2019-01-11T03:44:20.419Z,-1.20
2019-01-11T03:46:50.281Z,-0.90
2019-01-11T03:49:19.930Z,-1.00
2019-01-11T03:51:49.569Z,-0.90
2019-01-11T03:54:19.314Z,-0.80
2019-01-11T03:56:49.092Z,-0.70
2019-01-11T03:59:18.760Z,-0.60
2019-01-11T04:01:48.366Z,-0.60
2019-01-11T04:04:18.022Z,-0.70
2019-01-11T04:06:47.757Z,-0.70
2019-01-11T04:09:17.416Z,-0.80
2019-01-11T04:11:47.038Z,-0.70
2019-01-11T04:14:16.691Z,-0.60
2019-01-11T04:16:46.469Z,-0.50
2019-01-11T04:19:16.297Z,-0.40
2019-01-11T04:21:47.571Z,-0.30
2019-01-11T04:24:17.232Z,-0.30
2019-01-11T04:26:46.898Z,-0.40
2019-01-11T04:29:16.557Z,-0.70
2019-01-11T04:31:46.195Z,-0.70
2019-01-11T04:34:15.821Z,-0.60
2019-01-11T04:36:45.614Z,-0.60
2019-01-11T04:39:15.244Z,-0.60
2019-01-11T04:41:44.901Z,-0.30
2019-01-11T04:44:14.566Z,-0.20
2019-01-11T04:46:44.485Z,-0.40
2019-01-11T04:49:14.185Z,-0.20
2019-01-11T04:51:43.838Z,-0.20
2019-01-11T04:54:13.474Z,-0.40
2019-01-11T04:56:43.140Z,-0.70
2019-01-11T04:59:12.772Z,-0.50
2019-01-11T05:01:42.442Z,-0.50
2019-01-11T05:04:12.074Z,-0.60
2019-01-11T05:06:41.858Z,-0.80
2019-01-11T05:09:11.489Z,-0.90
2019-01-11T05:11:41.255Z,-0.80
2019-01-11T05:14:10.865Z,-0.70
2019-01-11T05:16:41.645Z,-0.80
2019-01-11T05:19:11.253Z,-0.90
2019-01-11T05:21:40.948Z,-0.60
2019-01-11T05:24:10.549Z,-0.50
2019-01-11T05:26:40.354Z,-0.40
2019-01-11T05:29:09.983Z,-0.40
2019-01-11T05:31:39.710Z,-0.50
2019-01-11T05:34:09.413Z,-0.70
2019-01-11T05:36:39.327Z,-0.50
2019-01-11T05:39:09.298Z,-0.40
2019-01-11T05:41:38.977Z,-0.40
2019-01-11T05:44:08.601Z,-0.30
2019-01-11T05:46:38.370Z,-0.30
2019-01-11T05:49:08.002Z,-0.30
2019-01-11T05:51:37.654Z,-0.70
2019-01-11T05:54:07.372Z,-0.60
2019-01-11T05:56:37.154Z,-0.40
2019-01-11T05:59:07.125Z,-0.40
2019-01-11T06:01:36.777Z,-0.60
2019-01-11T06:04:08.123Z,-0.70
2019-01-11T06:06:55.975Z,-0.80
2019-01-11T06:09:26.074Z,-0.50
2019-01-11T06:11:55.726Z,-0.30
2019-01-11T06:14:25.383Z,-0.30
2019-01-11T06:16:55.062Z,-0.50
2019-01-11T06:19:24.709Z,-0.40
2019-01-11T06:21:54.366Z,-0.30
2019-01-11T06:24:23.997Z,-0.40
2019-01-11T06:26:53.685Z,-0.60
2019-01-11T06:29:23.310Z,-0.50
2019-01-11T06:31:53.315Z,-0.40
2019-01-11T06:34:22.953Z,-0.80
2019-01-11T06:36:55.447Z,-0.90
2019-01-11T06:39:25.069Z,-1.00
2019-01-11T06:41:56.369Z,-1.00
2019-01-11T06:44:26.001Z,-0.70
2019-01-11T06:46:55.662Z,-0.80
2019-01-11T06:49:25.294Z,-0.70
2019-01-11T06:51:55.237Z,-0.50
2019-01-11T06:54:24.876Z,-0.50
2019-01-11T06:56:54.790Z,-0.40
2019-01-11T06:59:24.417Z,-0.30
2019-01-11T07:01:54.069Z,-0.20
2019-01-11T07:04:23.697Z,-0.30
2019-01-11T07:06:53.366Z,-0.30
2019-01-11T07:09:22.993Z,-0.30
2019-01-11T07:11:52.647Z,-0.20
2019-01-11T07:14:22.281Z,-0.20
2019-01-11T07:16:51.933Z,-0.30
2019-01-11T07:19:21.564Z,-0.60
2019-01-11T07:21:51.237Z,-0.80
2019-01-11T07:24:20.858Z,-0.60
2019-01-11T07:26:50.525Z,-0.40
2019-01-11T07:29:20.182Z,-0.50
2019-01-11T07:31:49.829Z,-0.60
2019-01-11T07:34:19.491Z,-0.80
2019-01-11T07:36:49.118Z,-0.90
2019-01-11T07:39:20.405Z,-0.90
2019-01-11T07:41:50.142Z,-1.10
2019-01-11T07:44:19.909Z,-1.10
2019-01-11T07:46:49.574Z,-0.90
2019-01-11T07:49:23.139Z,-0.90
2019-01-11T07:51:50.599Z,-1.20
2019-01-11T07:54:20.349Z,-1.00
2019-01-11T07:56:50.159Z,-0.90
2019-01-11T07:59:20.935Z,-0.80
2019-01-11T08:01:50.795Z,-1.00
2019-01-11T08:04:20.445Z,-1.00
2019-01-11T08:06:50.153Z,-0.90
2019-01-11T08:09:19.827Z,-1.20
2019-01-11T08:11:49.521Z,-1.10
2019-01-11T08:14:19.177Z,-1.20
2019-01-11T08:16:48.804Z,-0.90
2019-01-11T08:19:18.482Z,-0.80
2019-01-11T08:21:48.109Z,-1.10
2019-01-11T08:24:17.782Z,-1.10
2019-01-11T08:26:47.425Z,-1.00
2019-01-11T08:29:17.079Z,-1.20
2019-01-11T08:31:46.736Z,-1.30
2019-01-11T08:34:16.377Z,-1.50
2019-01-11T08:36:46.002Z,-1.20
2019-01-11T08:39:15.729Z,-1.00
2019-01-11T08:41:45.369Z,-1.30
2019-01-11T08:44:15.025Z,-1.30
2019-01-11T08:46:44.666Z,-1.00
2019-01-11T08:49:14.309Z,-1.00
2019-01-11T08:51:43.941Z,-1.50
2019-01-11T08:54:13.598Z,-1.30
2019-01-11T08:56:43.399Z,-1.00
2019-01-11T08:59:13.034Z,-0.90
2019-01-11T09:01:42.662Z,-0.80
2019-01-11T09:04:12.313Z,-1.00
2019-01-11T09:06:43.758Z,-0.80
2019-01-11T09:09:13.479Z,-0.70
2019-01-11T09:11:43.106Z,-0.60
2019-01-11T09:14:14.397Z,-0.50
2019-01-11T09:16:44.064Z,-0.30
2019-01-11T09:19:13.753Z,-0.50
2019-01-11T09:21:43.362Z,-0.50
2019-01-11T09:24:13.013Z,-0.30
2019-01-11T09:26:42.642Z,-0.30
2019-01-11T09:29:12.299Z,-0.30
2019-01-11T09:31:41.933Z,-0.20
2019-01-11T09:34:11.582Z,-0.20
2019-01-11T09:36:41.481Z,-0.10
2019-01-11T09:39:11.115Z,-0.10
2019-01-11T09:41:40.767Z,0.00
2019-01-11T09:44:10.417Z,0.20
2019-01-11T09:46:40.053Z,0.50
2019-01-11T09:49:09.684Z,0.50
2019-01-11T09:51:39.335Z,0.40
2019-01-11T09:54:09.029Z,0.50
2019-01-11T09:56:38.762Z,0.40
2019-01-11T09:59:08.458Z,0.40
2019-01-11T10:01:38.120Z,0.60
2019-01-11T10:04:09.385Z,0.70
2019-01-11T10:06:40.713Z,0.60
2019-01-11T10:09:10.517Z,0.60
2019-01-11T10:11:40.174Z,0.90
2019-01-11T10:14:09.799Z,0.80
2019-01-11T10:16:39.441Z,0.90
2019-01-11T10:19:09.074Z,1.20
2019-01-11T10:21:38.739Z,1.10
2019-01-11T10:24:08.358Z,0.90
2019-01-11T10:26:39.717Z,1.40
2019-01-11T10:29:09.347Z,1.70
2019-01-11T10:31:38.985Z,1.70
2019-01-11T10:34:08.635Z,1.80
2019-01-11T10:36:38.342Z,2.10
2019-01-11T10:39:08.247Z,2.40
2019-01-11T10:41:37.883Z,2.50
2019-01-11T10:44:07.505Z,2.40
2019-01-11T10:46:37.825Z,2.30
2019-01-11T10:49:07.471Z,2.40
2019-01-11T10:51:37.113Z,2.10
2019-01-11T10:54:08.445Z,2.50
2019-01-11T10:56:38.186Z,2.40
2019-01-11T10:59:08.187Z,2.40
2019-01-11T11:01:37.842Z,2.50
2019-01-11T11:04:07.606Z,2.60
2019-01-11T11:06:37.350Z,2.60
2019-01-11T11:09:07.715Z,2.70
2019-01-11T11:11:37.375Z,2.60
2019-01-11T11:14:07.425Z,2.50
2019-01-11T11:16:37.073Z,2.40
2019-01-11T11:19:06.702Z,2.50
2019-01-11T11:21:36.378Z,2.50
2019-01-11T11:24:06.116Z,2.40
2019-01-11T11:26:35.759Z,2.40
2019-01-11T11:29:05.538Z,2.30
2019-01-11T11:31:35.189Z,2.30
2019-01-11T11:34:04.896Z,2.30
2019-01-11T11:36:36.460Z,2.50
2019-01-11T11:39:09.497Z,2.50
2019-01-11T11:41:40.169Z,2.60
2019-01-11T11:44:09.825Z,2.70
2019-01-11T11:46:39.965Z,3.00
2019-01-11T11:49:09.595Z,3.20
2019-01-11T11:51:41.384Z,3.20
2019-01-11T11:54:10.492Z,3.30
2019-01-11T11:56:40.150Z,3.40
2019-01-11T11:59:09.794Z,3.40
2019-01-11T12:01:39.461Z,3.30
2019-01-11T12:04:09.094Z,3.40
2019-01-11T12:06:38.741Z,3.00
2019-01-11T12:09:09.046Z,3.10
2019-01-11T12:11:38.683Z,2.90
2019-01-11T12:14:08.470Z,2.80
2019-01-11T12:16:38.159Z,2.50
2019-01-11T12:19:07.812Z,2.50
2019-01-11T12:21:37.455Z,2.50
2019-01-11T12:24:07.116Z,2.50
2019-01-11T12:26:36.750Z,2.40
2019-01-11T12:29:06.764Z,2.50
2019-01-11T12:31:36.390Z,2.60
2019-01-11T12:34:06.043Z,2.50
2019-01-11T12:36:35.769Z,2.50
2019-01-11T12:39:07.777Z,2.50
2019-01-11T12:41:37.406Z,2.60
2019-01-11T12:44:07.126Z,2.50
2019-01-11T12:46:36.846Z,2.50
2019-01-11T12:49:06.571Z,2.50
2019-01-11T12:51:36.210Z,2.50
2019-01-11T12:54:05.858Z,2.40
2019-01-11T12:56:35.482Z,2.30
2019-01-11T12:59:05.214Z,2.30
2019-01-11T13:01:34.856Z,2.30
2019-01-11T13:04:04.770Z,2.20
2019-01-11T13:06:34.456Z,2.20
2019-01-11T13:09:06.850Z,2.00
2019-01-11T13:11:36.478Z,2.20
2019-01-11T13:14:06.195Z,2.30
2019-01-11T13:16:35.997Z,2.30
2019-01-11T13:19:05.647Z,2.20
2019-01-11T13:21:35.338Z,2.30
2019-01-11T13:24:05.255Z,2.30
2019-01-11T13:26:34.894Z,2.20
2019-01-11T13:29:04.630Z,2.10
2019-01-11T13:31:34.257Z,2.00
2019-01-11T13:34:04.078Z,2.10
2019-01-11T13:36:33.738Z,2.30
2019-01-11T13:39:06.533Z,2.30
2019-01-11T13:41:36.161Z,2.20
2019-01-11T13:44:05.816Z,2.30
2019-01-11T13:46:35.507Z,2.20
2019-01-11T13:49:05.498Z,1.80
2019-01-11T13:51:35.131Z,1.90
2019-01-11T13:54:05.309Z,1.90
2019-01-11T13:56:34.935Z,2.00
2019-01-11T13:59:04.688Z,2.10
2019-01-11T14:01:34.305Z,2.10
2019-01-11T14:04:04.046Z,1.90
2019-01-11T14:06:33.742Z,1.70
2019-01-11T14:09:05.302Z,1.80
2019-01-11T14:11:34.930Z,2.00
2019-01-11T14:14:04.699Z,2.00
2019-01-11T14:16:34.549Z,1.80
2019-01-11T14:19:04.175Z,1.70
2019-01-11T14:21:33.830Z,1.60
2019-01-11T14:24:03.513Z,1.60
2019-01-11T14:26:33.174Z,1.80
2019-01-11T14:29:02.789Z,1.80
2019-01-11T14:31:32.437Z,1.50
2019-01-11T14:34:02.056Z,1.60
2019-01-11T14:36:31.762Z,1.70
2019-01-11T14:39:01.386Z,1.60
2019-01-11T14:41:31.311Z,1.60
2019-01-11T14:44:01.219Z,1.70
2019-01-11T14:46:30.865Z,1.80
2019-01-11T14:49:00.490Z,1.80
2019-01-11T14:51:30.130Z,1.90
2019-01-11T14:53:59.746Z,1.80
2019-01-11T14:56:29.393Z,1.80
2019-01-11T14:58:59.876Z,1.80
2019-01-11T15:01:29.560Z,1.70
2019-01-11T15:03:59.178Z,1.70
2019-01-11T15:06:28.817Z,1.70
2019-01-11T15:08:58.453Z,1.80
2019-01-11T15:11:28.100Z,1.70
2019-01-11T15:13:57.721Z,1.60
2019-01-11T15:16:27.422Z,1.60
2019-01-11T15:18:57.051Z,1.50
2019-01-11T15:21:26.702Z,1.60
2019-01-11T15:23:56.326Z,1.60
2019-01-11T15:26:25.978Z,1.70
2019-01-11T15:28:55.606Z,1.70
2019-01-11T15:31:25.264Z,1.60
2019-01-11T15:33:54.884Z,1.70
2019-01-11T15:36:24.602Z,1.70
2019-01-11T15:38:54.233Z,1.70
2019-01-11T15:41:23.909Z,1.70
2019-01-11T15:43:53.538Z,1.70
2019-01-11T15:46:23.187Z,1.60
2019-01-11T15:48:52.814Z,1.40
2019-01-11T15:51:22.539Z,1.50
2019-01-11T15:53:52.239Z,1.50
2019-01-11T15:56:23.238Z,1.50
2019-01-11T15:58:52.865Z,1.40
2019-01-11T16:01:22.653Z,1.50
2019-01-11T16:03:52.353Z,1.50
2019-01-11T16:06:25.122Z,1.50
2019-01-11T16:09:18.274Z,1.50
2019-01-11T16:11:56.761Z,1.40
2019-01-11T16:14:46.877Z,1.40
2019-01-11T16:17:19.842Z,1.50
2019-01-11T16:19:49.479Z,1.40
2019-01-11T16:22:19.364Z,1.20
2019-01-11T16:24:48.987Z,1.20
2019-01-11T16:27:18.675Z,1.20
2019-01-11T16:29:48.486Z,1.20
2019-01-11T16:32:18.073Z,1.10
2019-01-11T16:34:47.697Z,1.00
2019-01-11T16:37:17.358Z,0.80
2019-01-11T16:39:46.997Z,0.70
2019-01-11T16:42:16.715Z,0.70
2019-01-11T16:44:46.370Z,0.80
2019-01-11T16:47:16.174Z,0.80
2019-01-11T16:49:45.802Z,1.00
2019-01-11T16:52:15.544Z,0.80
2019-01-11T16:54:45.157Z,0.80
2019-01-11T16:57:14.798Z,0.70
2019-01-11T16:59:44.450Z,0.70
2019-01-11T17:02:14.512Z,0.80
2019-01-11T17:04:44.277Z,0.80
2019-01-11T17:07:14.103Z,0.90
2019-01-11T17:09:43.796Z,0.90
2019-01-11T17:12:13.473Z,0.90
2019-01-11T17:14:43.172Z,0.90
2019-01-11T17:17:12.956Z,0.80
2019-01-11T17:19:42.581Z,0.80
2019-01-11T17:22:12.232Z,0.90
2019-01-11T17:24:41.897Z,1.00
2019-01-11T17:27:11.610Z,1.10
2019-01-11T17:29:46.957Z,1.20
2019-01-11T17:32:12.629Z,1.40
2019-01-11T17:34:42.239Z,1.50
2019-01-11T17:37:11.893Z,1.30
2019-01-11T17:39:41.546Z,1.20
2019-01-11T17:42:11.181Z,1.20
2019-01-11T17:44:40.821Z,1.10
2019-01-11T17:47:10.538Z,1.20
2019-01-11T17:49:40.216Z,1.20
2019-01-11T17:52:09.902Z,1.10
2019-01-11T17:54:39.569Z,1.10
2019-01-11T17:57:09.258Z,1.00
2019-01-11T17:59:38.909Z,1.10
2019-01-11T18:02:08.609Z,1.20
2019-01-11T18:04:38.281Z,1.20
2019-01-11T18:07:07.930Z,1.30
2019-01-11T18:09:37.570Z,1.30
2019-01-11T18:12:07.202Z,1.40
2019-01-11T18:14:36.867Z,1.30
2019-01-11T18:17:06.703Z,1.30
2019-01-11T18:19:36.365Z,1.10
2019-01-11T18:22:06.002Z,1.00
2019-01-11T18:24:35.652Z,0.90
2019-01-11T18:27:08.536Z,0.90
2019-01-11T18:29:38.572Z,0.80
2019-01-11T18:32:08.183Z,0.90
2019-01-11T18:34:37.832Z,0.90
2019-01-11T18:37:07.461Z,0.80
2019-01-11T18:39:37.105Z,0.70
2019-01-11T18:42:06.731Z,0.70
2019-01-11T18:44:36.382Z,0.80
2019-01-11T18:47:06.119Z,0.90
2019-01-11T18:49:35.772Z,1.10
2019-01-11T18:52:05.406Z,1.10
2019-01-11T18:54:35.058Z,1.40
2019-01-11T18:57:04.772Z,1.60
2019-01-11T18:59:34.420Z,1.20
2019-01-11T19:02:04.121Z,1.10
2019-01-11T19:04:33.815Z,1.10
2019-01-11T19:07:03.499Z,1.90
2019-01-11T19:09:33.149Z,2.60
2019-01-11T19:12:02.785Z,2.10
2019-01-11T19:14:32.435Z,1.70
2019-01-11T19:17:02.066Z,1.50
2019-01-11T19:19:31.749Z,1.10
2019-01-11T19:22:01.509Z,0.90
2019-01-11T19:24:31.150Z,1.00
2019-01-11T19:27:00.885Z,0.90
2019-01-11T19:29:30.505Z,1.00
2019-01-11T19:32:00.173Z,0.90
2019-01-11T19:34:29.789Z,0.90
2019-01-11T19:36:59.447Z,0.80
2019-01-11T19:39:29.068Z,0.80
2019-01-11T19:41:58.728Z,0.70
2019-01-11T19:44:28.349Z,1.30
2019-01-11T19:46:58.167Z,2.40
2019-01-11T19:49:27.863Z,3.00
2019-01-11T19:51:57.527Z,2.50
2019-01-11T19:54:27.161Z,2.00
2019-01-11T19:56:56.818Z,1.70
2019-01-11T19:59:26.433Z,1.60
2019-01-11T20:01:56.185Z,1.30
2019-01-11T20:04:25.809Z,1.20
2019-01-11T20:06:55.613Z,1.10
2019-01-11T20:09:25.310Z,1.20
2019-01-11T20:11:55.069Z,1.30
2019-01-11T20:14:24.833Z,1.20
2019-01-11T20:16:54.647Z,1.20
2019-01-11T20:19:24.305Z,1.10
2019-01-11T20:21:53.957Z,0.90
2019-01-11T20:24:23.589Z,1.00
2019-01-11T20:26:53.328Z,1.10
2019-01-11T20:29:23.023Z,1.00
2019-01-11T20:31:52.685Z,1.00
2019-01-11T20:34:22.314Z,1.10
2019-01-11T20:36:55.133Z,1.00
2019-01-11T20:39:24.758Z,0.90
2019-01-11T20:41:54.426Z,0.90
2019-01-11T20:44:24.053Z,0.90
2019-01-11T20:46:53.870Z,0.90
2019-01-11T20:49:23.504Z,0.90
2019-01-11T20:51:53.163Z,0.90
2019-01-11T20:54:22.793Z,1.00
2019-01-11T20:56:52.505Z,0.90
2019-01-11T20:59:22.137Z,0.90
2019-01-11T21:01:51.781Z,1.00
2019-01-11T21:04:21.409Z,1.10
2019-01-11T21:06:51.149Z,0.90
2019-01-11T21:09:20.778Z,0.90
2019-01-11T21:11:50.425Z,0.80
2019-01-11T21:14:20.135Z,0.70
2019-01-11T21:16:49.782Z,0.80
2019-01-11T21:19:19.418Z,0.70
2019-01-11T21:21:49.071Z,0.90
2019-01-11T21:24:18.767Z,1.00
2019-01-11T21:26:48.602Z,0.90
2019-01-11T21:29:18.229Z,0.90
2019-01-11T21:31:48.034Z,1.00
2019-01-11T21:34:17.662Z,1.10
2019-01-11T21:36:47.365Z,1.10
2019-01-11T21:39:16.985Z,1.10
2019-01-11T21:41:46.637Z,1.10
2019-01-11T21:44:16.347Z,1.10
2019-01-11T21:46:46.101Z,1.00
2019-01-11T21:49:15.730Z,1.10
2019-01-11T21:51:45.385Z,1.10
2019-01-11T21:54:15.087Z,1.10
2019-01-11T21:56:46.894Z,1.00
2019-01-11T21:59:16.537Z,1.00
2019-01-11T22:01:46.186Z,1.00
2019-01-11T22:04:15.905Z,1.10
2019-01-11T22:06:45.545Z,1.10
2019-01-11T22:09:15.185Z,1.10
2019-01-11T22:11:45.134Z,1.20
2019-01-11T22:14:14.762Z,1.30
2019-01-11T22:16:44.634Z,1.30
2019-01-11T22:19:14.281Z,1.20
2019-01-11T22:21:43.917Z,1.30
2019-01-11T22:24:13.568Z,1.30
2019-01-11T22:26:43.201Z,1.20
2019-01-11T22:29:12.865Z,1.10
2019-01-11T22:31:42.562Z,0.90
2019-01-11T22:34:12.234Z,0.90
2019-01-11T22:36:42.009Z,1.00
2019-01-11T22:39:11.662Z,1.00
2019-01-11T22:41:41.297Z,0.90
2019-01-11T22:44:10.945Z,1.00
2019-01-11T22:46:40.646Z,1.00
2019-01-11T22:49:10.294Z,1.00
2019-01-11T22:51:39.986Z,1.10
2019-01-11T22:54:10.480Z,1.10
2019-01-11T22:56:40.610Z,1.00
2019-01-11T22:59:10.269Z,1.10
2019-01-11T23:01:51.974Z,1.20
2019-01-11T23:04:21.630Z,1.20
2019-01-11T23:06:54.418Z,1.30
2019-01-11T23:09:24.392Z,1.20
2019-01-11T23:12:09.046Z,1.20
2019-01-11T23:14:40.591Z,1.30
2019-01-11T23:17:13.273Z,1.30
2019-01-11T23:19:42.921Z,1.30
2019-01-11T23:22:12.549Z,1.20
2019-01-11T23:24:42.206Z,1.30
2019-01-11T23:27:11.838Z,1.30
2019-01-11T23:29:41.499Z,1.20
2019-01-11T23:32:11.125Z,1.10
2019-01-11T23:34:40.790Z,1.20
2019-01-11T23:37:10.582Z,1.10
2019-01-11T23:39:40.233Z,1.10
2019-01-11T23:42:09.866Z,1.10
2019-01-11T23:44:39.518Z,1.20
2019-01-11T23:47:09.222Z,1.10
2019-01-11T23:49:38.873Z,1.00
2019-01-11T23:52:08.505Z,1.20
2019-01-11T23:54:38.154Z,1.30
2019-01-11T23:57:07.782Z,1.30
2019-01-11T23:59:37.444Z,1.30
